sensor_id;sensor_type;location;lat;lon;timestamp;pressure;altitude;pressure_sealevel;temperature;humidity
6198;BME280;3132;42.622;23.328;2023-12-22T00:00:39;91271.56;;;1.78;92.69
6198;BME280;3132;42.622;23.328;2023-12-22T00:03:04;91261.28;;;1.52;93.69
6198;BME280;3132;42.622;23.328;2023-12-22T00:05:29;91262.06;;;1.68;93.62
6198;BME280;3132;42.622;23.328;2023-12-22T00:07:55;91247.88;;;1.81;93.17
6198;BME280;3132;42.622;23.328;2023-12-22T00:10:20;91226.56;;;1.85;92.65
6198;BME280;3132;42.622;23.328;2023-12-22T00:12:46;91220.66;;;1.34;94.92
6198;BME280;3132;42.622;23.328;2023-12-22T00:15:11;91205.22;;;1.14;94.32
6198;BME280;3132;42.622;23.328;2023-12-22T00:17:36;91233.50;;;1.49;94.51
6198;BME280;3132;42.622;23.328;2023-12-22T00:20:02;91244.81;;;1.48;96.08
6198;BME280;3132;42.622;23.328;2023-12-22T00:22:28;91218.84;;;1.70;94.06
6198;BME280;3132;42.622;23.328;2023-12-22T00:24:54;91190.31;;;1.26;93.87
6198;BME280;3132;42.622;23.328;2023-12-22T00:27:20;91239.16;;;1.46;94.85
6198;BME280;3132;42.622;23.328;2023-12-22T00:29:45;91244.06;;;1.68;94.63
6198;BME280;3132;42.622;23.328;2023-12-22T00:32:10;91218.59;;;1.21;95.12
6198;BME280;3132;42.622;23.328;2023-12-22T00:34:36;91236.59;;;1.16;96.48
6198;BME280;3132;42.622;23.328;2023-12-22T00:37:01;91218.56;;;1.77;95.03
6198;BME280;3132;42.622;23.328;2023-12-22T00:39:27;91219.09;;;1.84;93.87
6198;BME280;3132;42.622;23.328;2023-12-22T00:41:52;91178.97;;;1.67;94.67
6198;BME280;3132;42.622;23.328;2023-12-22T00:44:18;91171.75;;;1.85;94.02
6198;BME280;3132;42.622;23.328;2023-12-22T00:46:43;91153.16;;;2.03;92.47
6198;BME280;3132;42.622;23.328;2023-12-22T00:49:08;91142.59;;;2.04;93.09
6198;BME280;3132;42.622;23.328;2023-12-22T00:51:34;91153.59;;;2.25;91.72
6198;BME280;3132;42.622;23.328;2023-12-22T00:53:59;91147.66;;;2.24;90.05
6198;BME280;3132;42.622;23.328;2023-12-22T00:56:24;91178.63;;;2.04;91.80
6198;BME280;3132;42.622;23.328;2023-12-22T00:58:50;91182.34;;;1.68;95.54
6198;BME280;3132;42.622;23.328;2023-12-22T01:01:15;91195.94;;;1.68;94.62
6198;BME280;3132;42.622;23.328;2023-12-22T01:03:40;91204.34;;;2.14;92.76
6198;BME280;3132;42.622;23.328;2023-12-22T01:06:06;91195.31;;;2.27;92.76
6198;BME280;3132;42.622;23.328;2023-12-22T01:08:31;91205.94;;;1.95;92.67
6198;BME280;3132;42.622;23.328;2023-12-22T01:10:56;91213.38;;;2.02;93.00
6198;BME280;3132;42.622;23.328;2023-12-22T01:13:22;91224.31;;;2.47;90.63
6198;BME280;3132;42.622;23.328;2023-12-22T01:15:47;91186.00;;;2.36;90.86
6198;BME280;3132;42.622;23.328;2023-12-22T01:18:12;91197.34;;;2.35;91.48
6198;BME280;3132;42.622;23.328;2023-12-22T01:20:38;91227.16;;;2.46;91.59
6198;BME280;3132;42.622;23.328;2023-12-22T01:23:03;91190.78;;;2.62;89.37
6198;BME280;3132;42.622;23.328;2023-12-22T01:25:29;91193.97;;;2.44;89.92
6198;BME280;3132;42.622;23.328;2023-12-22T01:27:54;91195.13;;;2.67;89.38
6198;BME280;3132;42.622;23.328;2023-12-22T01:30:19;91180.22;;;2.59;89.15
6198;BME280;3132;42.622;23.328;2023-12-22T01:32:45;91189.09;;;2.28;92.17
6198;BME280;3132;42.622;23.328;2023-12-22T01:35:10;91185.88;;;2.66;90.04
6198;BME280;3132;42.622;23.328;2023-12-22T01:37:36;91183.50;;;2.69;88.21
6198;BME280;3132;42.622;23.328;2023-12-22T01:40:03;91193.69;;;2.41;91.01
6198;BME280;3132;42.622;23.328;2023-12-22T01:42:28;91176.25;;;2.23;92.27
6198;BME280;3132;42.622;23.328;2023-12-22T01:44:54;91182.31;;;2.57;89.31
6198;BME280;3132;42.622;23.328;2023-12-22T01:47:20;91143.84;;;2.22;91.05
6198;BME280;3132;42.622;23.328;2023-12-22T01:49:45;91150.63;;;1.98;92.36
6198;BME280;3132;42.622;23.328;2023-12-22T01:52:11;91155.88;;;2.36;91.70
6198;BME280;3132;42.622;23.328;2023-12-22T01:54:37;91152.78;;;2.39;92.52
6198;BME280;3132;42.622;23.328;2023-12-22T01:57:02;91159.97;;;2.37;90.96
6198;BME280;3132;42.622;23.328;2023-12-22T01:59:28;91160.09;;;2.66;90.39
6198;BME280;3132;42.622;23.328;2023-12-22T02:01:56;91106.91;;;2.41;90.32
6198;BME280;3132;42.622;23.328;2023-12-22T02:04:22;91136.50;;;2.49;90.79
6198;BME280;3132;42.622;23.328;2023-12-22T02:06:48;91165.22;;;2.17;91.53
6198;BME280;3132;42.622;23.328;2023-12-22T02:09:14;91105.09;;;2.47;88.82
6198;BME280;3132;42.622;23.328;2023-12-22T02:11:39;91131.56;;;2.57;90.40
6198;BME280;3132;42.622;23.328;2023-12-22T02:14:05;91147.81;;;2.48;90.69
6198;BME280;3132;42.622;23.328;2023-12-22T02:16:45;91142.97;;;2.85;88.65
6198;BME280;3132;42.622;23.328;2023-12-22T02:19:59;91156.72;;;2.70;89.44
6198;BME280;3132;42.622;23.328;2023-12-22T02:22:18;91143.41;;;2.58;90.84
6198;BME280;3132;42.622;23.328;2023-12-22T02:24:43;91159.03;;;2.72;88.40
6198;BME280;3132;42.622;23.328;2023-12-22T02:30:00;91125.19;;;2.40;90.56
6198;BME280;3132;42.622;23.328;2023-12-22T02:32:35;91142.06;;;2.66;91.53
6198;BME280;3132;42.622;23.328;2023-12-22T02:35:05;91126.09;;;2.64;91.34
6198;BME280;3132;42.622;23.328;2023-12-22T02:37:34;91117.28;;;2.75;89.77
6198;BME280;3132;42.622;23.328;2023-12-22T02:40:01;91151.00;;;3.17;88.29
6198;BME280;3132;42.622;23.328;2023-12-22T02:42:28;91141.16;;;3.24;86.74
6198;BME280;3132;42.622;23.328;2023-12-22T02:44:59;91145.59;;;3.18;86.85
6198;BME280;3132;42.622;23.328;2023-12-22T02:47:24;91144.16;;;3.02;86.67
6198;BME280;3132;42.622;23.328;2023-12-22T02:49:50;91130.53;;;2.97;88.46
6198;BME280;3132;42.622;23.328;2023-12-22T02:52:15;91138.00;;;2.98;88.39
6198;BME280;3132;42.622;23.328;2023-12-22T02:54:41;91140.19;;;2.81;90.23
6198;BME280;3132;42.622;23.328;2023-12-22T02:57:09;91118.22;;;2.89;89.03
6198;BME280;3132;42.622;23.328;2023-12-22T02:59:34;91115.75;;;3.07;88.28
6198;BME280;3132;42.622;23.328;2023-12-22T03:02:00;91117.09;;;3.05;88.77
6198;BME280;3132;42.622;23.328;2023-12-22T03:04:25;91083.03;;;2.69;90.09
6198;BME280;3132;42.622;23.328;2023-12-22T03:06:51;91105.75;;;3.01;89.74
6198;BME280;3132;42.622;23.328;2023-12-22T03:09:16;91088.09;;;3.18;88.53
6198;BME280;3132;42.622;23.328;2023-12-22T03:11:41;91092.81;;;3.11;87.89
6198;BME280;3132;42.622;23.328;2023-12-22T03:14:07;91080.28;;;2.94;88.84
6198;BME280;3132;42.622;23.328;2023-12-22T03:16:32;91090.88;;;2.54;90.54
6198;BME280;3132;42.622;23.328;2023-12-22T03:18:58;91045.28;;;2.60;88.83
6198;BME280;3132;42.622;23.328;2023-12-22T03:21:23;91120.81;;;2.84;89.67
6198;BME280;3132;42.622;23.328;2023-12-22T03:23:49;91125.53;;;2.77;90.51
6198;BME280;3132;42.622;23.328;2023-12-22T03:26:14;91099.75;;;2.77;91.64
6198;BME280;3132;42.622;23.328;2023-12-22T03:28:39;91131.00;;;3.04;91.10
6198;BME280;3132;42.622;23.328;2023-12-22T03:31:05;91123.19;;;3.14;91.20
6198;BME280;3132;42.622;23.328;2023-12-22T03:33:32;91124.06;;;3.33;89.30
6198;BME280;3132;42.622;23.328;2023-12-22T03:35:57;91152.31;;;3.14;90.63
6198;BME280;3132;42.622;23.328;2023-12-22T03:38:22;91107.50;;;3.10;89.93
6198;BME280;3132;42.622;23.328;2023-12-22T03:40:48;91122.50;;;3.32;89.38
6198;BME280;3132;42.622;23.328;2023-12-22T03:43:13;91128.00;;;2.92;91.28
6198;BME280;3132;42.622;23.328;2023-12-22T03:45:38;91112.25;;;3.27;90.14
6198;BME280;3132;42.622;23.328;2023-12-22T03:48:04;91090.38;;;2.91;91.50
6198;BME280;3132;42.622;23.328;2023-12-22T03:50:29;91091.84;;;3.30;89.88
6198;BME280;3132;42.622;23.328;2023-12-22T03:52:55;91116.44;;;3.18;89.23
6198;BME280;3132;42.622;23.328;2023-12-22T03:55:21;91129.22;;;2.99;91.48
6198;BME280;3132;42.622;23.328;2023-12-22T03:57:46;91107.69;;;3.19;89.79
6198;BME280;3132;42.622;23.328;2023-12-22T04:00:12;91128.31;;;3.19;90.38
6198;BME280;3132;42.622;23.328;2023-12-22T04:02:39;91110.47;;;3.22;88.41
6198;BME280;3132;42.622;23.328;2023-12-22T04:05:05;91121.03;;;3.26;90.11
6198;BME280;3132;42.622;23.328;2023-12-22T04:07:30;91124.13;;;3.28;89.43
6198;BME280;3132;42.622;23.328;2023-12-22T04:09:56;91124.31;;;3.31;90.28
6198;BME280;3132;42.622;23.328;2023-12-22T04:12:21;91125.41;;;2.92;91.09
6198;BME280;3132;42.622;23.328;2023-12-22T04:14:46;91076.31;;;3.07;90.35
6198;BME280;3132;42.622;23.328;2023-12-22T04:17:11;91115.94;;;3.16;91.13
6198;BME280;3132;42.622;23.328;2023-12-22T04:19:37;91119.44;;;3.30;90.81
6198;BME280;3132;42.622;23.328;2023-12-22T04:22:02;91095.75;;;3.28;90.98
6198;BME280;3132;42.622;23.328;2023-12-22T04:24:28;91118.25;;;3.46;91.34
6198;BME280;3132;42.622;23.328;2023-12-22T04:26:53;91102.25;;;3.49;90.65
6198;BME280;3132;42.622;23.328;2023-12-22T04:29:18;91109.72;;;3.51;90.36
6198;BME280;3132;42.622;23.328;2023-12-22T04:31:44;91098.09;;;3.53;90.39
6198;BME280;3132;42.622;23.328;2023-12-22T04:34:11;91088.59;;;3.49;90.75
6198;BME280;3132;42.622;23.328;2023-12-22T04:36:37;91113.34;;;3.16;92.09
6198;BME280;3132;42.622;23.328;2023-12-22T04:39:02;91083.88;;;3.27;92.08
6198;BME280;3132;42.622;23.328;2023-12-22T04:41:28;91096.28;;;3.25;94.41
6198;BME280;3132;42.622;23.328;2023-12-22T04:43:53;91056.88;;;3.19;93.85
6198;BME280;3132;42.622;23.328;2023-12-22T04:46:18;91078.41;;;3.05;95.09
6198;BME280;3132;42.622;23.328;2023-12-22T04:48:43;91090.03;;;3.31;94.80
6198;BME280;3132;42.622;23.328;2023-12-22T04:51:09;91092.16;;;2.95;97.37
6198;BME280;3132;42.622;23.328;2023-12-22T04:53:34;91068.59;;;3.07;96.06
6198;BME280;3132;42.622;23.328;2023-12-22T04:55:59;91065.44;;;3.15;96.99
6198;BME280;3132;42.622;23.328;2023-12-22T04:58:25;91078.50;;;2.95;98.09
6198;BME280;3132;42.622;23.328;2023-12-22T05:00:50;91087.69;;;3.06;98.28
6198;BME280;3132;42.622;23.328;2023-12-22T05:03:16;91076.22;;;3.22;96.15
6198;BME280;3132;42.622;23.328;2023-12-22T05:05:41;91084.41;;;3.24;96.79
6198;BME280;3132;42.622;23.328;2023-12-22T05:08:06;91084.47;;;2.85;97.87
6198;BME280;3132;42.622;23.328;2023-12-22T05:10:32;91076.97;;;2.94;97.51
6198;BME280;3132;42.622;23.328;2023-12-22T05:12:57;91068.06;;;2.76;99.55
6198;BME280;3132;42.622;23.328;2023-12-22T05:15:22;91040.44;;;2.82;98.12
6198;BME280;3132;42.622;23.328;2023-12-22T05:17:48;91068.50;;;2.50;100.00
6198;BME280;3132;42.622;23.328;2023-12-22T05:20:13;91066.16;;;2.92;99.51
6198;BME280;3132;42.622;23.328;2023-12-22T05:22:39;91051.56;;;3.11;98.15
6198;BME280;3132;42.622;23.328;2023-12-22T05:25:05;91062.09;;;2.81;99.06
6198;BME280;3132;42.622;23.328;2023-12-22T05:27:31;91083.88;;;3.27;96.20
6198;BME280;3132;42.622;23.328;2023-12-22T05:29:56;91061.53;;;2.89;97.45
6198;BME280;3132;42.622;23.328;2023-12-22T05:32:27;91082.75;;;3.38;100.00
6198;BME280;3132;42.622;23.328;2023-12-22T05:34:52;91075.81;;;3.33;99.38
6198;BME280;3132;42.622;23.328;2023-12-22T05:37:17;91108.81;;;3.37;97.55
6198;BME280;3132;42.622;23.328;2023-12-22T05:39:43;91104.31;;;3.23;97.16
6198;BME280;3132;42.622;23.328;2023-12-22T05:42:09;91098.91;;;3.20;97.21
6198;BME280;3132;42.622;23.328;2023-12-22T05:44:34;91094.72;;;3.24;96.93
6198;BME280;3132;42.622;23.328;2023-12-22T05:47:00;91084.75;;;3.17;97.06
6198;BME280;3132;42.622;23.328;2023-12-22T05:49:25;91097.28;;;3.29;96.80
6198;BME280;3132;42.622;23.328;2023-12-22T05:51:51;91093.13;;;3.33;96.72
6198;BME280;3132;42.622;23.328;2023-12-22T05:54:16;91051.88;;;3.33;97.33
6198;BME280;3132;42.622;23.328;2023-12-22T05:56:44;91027.56;;;2.82;98.53
6198;BME280;3132;42.622;23.328;2023-12-22T05:59:09;91049.28;;;3.33;97.18
6198;BME280;3132;42.622;23.328;2023-12-22T06:01:35;91002.66;;;3.01;97.67
6198;BME280;3132;42.622;23.328;2023-12-22T06:04:01;91052.81;;;3.42;97.76
6198;BME280;3132;42.622;23.328;2023-12-22T06:06:27;91042.22;;;3.44;95.67
6198;BME280;3132;42.622;23.328;2023-12-22T06:08:53;91067.53;;;2.79;99.41
6198;BME280;3132;42.622;23.328;2023-12-22T06:11:18;91084.44;;;2.90;99.85
6198;BME280;3132;42.622;23.328;2023-12-22T06:13:43;91080.84;;;3.20;98.17
6198;BME280;3132;42.622;23.328;2023-12-22T06:16:13;91089.91;;;3.17;98.65
6198;BME280;3132;42.622;23.328;2023-12-22T06:18:39;91103.53;;;3.23;98.56
6198;BME280;3132;42.622;23.328;2023-12-22T06:21:05;91107.94;;;3.46;96.76
6198;BME280;3132;42.622;23.328;2023-12-22T06:23:30;91097.72;;;3.65;95.69
6198;BME280;3132;42.622;23.328;2023-12-22T06:25:55;91083.47;;;3.44;95.87
6198;BME280;3132;42.622;23.328;2023-12-22T06:28:21;91095.94;;;3.31;97.10
6198;BME280;3132;42.622;23.328;2023-12-22T06:30:46;91092.03;;;3.10;98.27
6198;BME280;3132;42.622;23.328;2023-12-22T06:33:12;91087.63;;;3.40;96.53
6198;BME280;3132;42.622;23.328;2023-12-22T06:35:38;91076.25;;;3.69;94.75
6198;BME280;3132;42.622;23.328;2023-12-22T06:38:06;91090.84;;;3.55;95.67
6198;BME280;3132;42.622;23.328;2023-12-22T06:40:32;91100.25;;;3.41;95.39
6198;BME280;3132;42.622;23.328;2023-12-22T06:42:57;91106.22;;;3.65;94.16
6198;BME280;3132;42.622;23.328;2023-12-22T06:45:23;91103.59;;;3.70;93.63
6198;BME280;3132;42.622;23.328;2023-12-22T06:47:48;91104.59;;;3.74;93.77
6198;BME280;3132;42.622;23.328;2023-12-22T06:50:13;91102.81;;;3.70;94.70
6198;BME280;3132;42.622;23.328;2023-12-22T06:52:39;91101.06;;;3.65;95.46
6198;BME280;3132;42.622;23.328;2023-12-22T06:55:05;91030.78;;;3.26;95.99
6198;BME280;3132;42.622;23.328;2023-12-22T06:57:30;91114.56;;;3.57;96.24
6198;BME280;3132;42.622;23.328;2023-12-22T06:59:56;91051.72;;;2.91;97.96
6198;BME280;3132;42.622;23.328;2023-12-22T07:02:21;91092.31;;;3.61;96.78
6198;BME280;3132;42.622;23.328;2023-12-22T07:07:36;91090.34;;;3.53;96.01
6198;BME280;3132;42.622;23.328;2023-12-22T07:10:02;91101.69;;;3.52;96.52
6198;BME280;3132;42.622;23.328;2023-12-22T07:12:27;91058.72;;;3.43;96.49
6198;BME280;3132;42.622;23.328;2023-12-22T07:14:53;91113.56;;;3.77;96.97
6198;BME280;3132;42.622;23.328;2023-12-22T07:17:19;91097.22;;;3.86;95.81
6198;BME280;3132;42.622;23.328;2023-12-22T07:19:44;91128.31;;;3.76;97.55
6198;BME280;3132;42.622;23.328;2023-12-22T07:22:09;91121.13;;;3.73;97.94
6198;BME280;3132;42.622;23.328;2023-12-22T07:24:35;91108.22;;;3.73;98.04
6198;BME280;3132;42.622;23.328;2023-12-22T07:27:00;91131.72;;;3.95;98.03
6198;BME280;3132;42.622;23.328;2023-12-22T07:29:26;91112.09;;;4.18;96.12
6198;BME280;3132;42.622;23.328;2023-12-22T07:31:51;91107.66;;;4.23;95.48
6198;BME280;3132;42.622;23.328;2023-12-22T07:34:16;91127.31;;;4.19;95.72
6198;BME280;3132;42.622;23.328;2023-12-22T07:36:43;91100.81;;;3.90;97.83
6198;BME280;3132;42.622;23.328;2023-12-22T07:39:09;91128.09;;;3.96;98.23
6198;BME280;3132;42.622;23.328;2023-12-22T07:41:34;91125.00;;;4.18;98.07
6198;BME280;3132;42.622;23.328;2023-12-22T07:44:00;91123.91;;;4.24;96.54
6198;BME280;3132;42.622;23.328;2023-12-22T07:46:26;91131.22;;;4.17;97.38
6198;BME280;3132;42.622;23.328;2023-12-22T07:48:53;91126.19;;;4.49;96.74
6198;BME280;3132;42.622;23.328;2023-12-22T07:51:18;91128.81;;;4.44;96.45
6198;BME280;3132;42.622;23.328;2023-12-22T07:53:44;91140.72;;;4.21;96.88
6198;BME280;3132;42.622;23.328;2023-12-22T07:56:09;91151.63;;;4.18;98.54
6198;BME280;3132;42.622;23.328;2023-12-22T07:58:36;91149.94;;;4.51;97.03
6198;BME280;3132;42.622;23.328;2023-12-22T08:01:01;91162.16;;;4.82;95.08
6198;BME280;3132;42.622;23.328;2023-12-22T08:03:28;91154.34;;;4.87;94.17
6198;BME280;3132;42.622;23.328;2023-12-22T08:05:53;91166.69;;;4.53;96.65
6198;BME280;3132;42.622;23.328;2023-12-22T08:08:18;91169.47;;;4.80;95.71
6198;BME280;3132;42.622;23.328;2023-12-22T08:10:44;91173.16;;;4.93;94.53
6198;BME280;3132;42.622;23.328;2023-12-22T08:13:09;91163.56;;;4.75;95.04
6198;BME280;3132;42.622;23.328;2023-12-22T08:15:34;91151.50;;;4.89;94.77
6198;BME280;3132;42.622;23.328;2023-12-22T08:18:00;91198.75;;;4.52;96.63
6198;BME280;3132;42.622;23.328;2023-12-22T08:20:25;91179.78;;;4.62;97.10
6198;BME280;3132;42.622;23.328;2023-12-22T08:22:50;91155.47;;;4.63;96.16
6198;BME280;3132;42.622;23.328;2023-12-22T08:25:16;91190.91;;;4.15;99.65
6198;BME280;3132;42.622;23.328;2023-12-22T08:27:47;91197.00;;;4.48;97.73
6198;BME280;3132;42.622;23.328;2023-12-22T08:30:13;91184.47;;;4.36;97.55
6198;BME280;3132;42.622;23.328;2023-12-22T08:32:39;91155.44;;;4.44;96.77
6198;BME280;3132;42.622;23.328;2023-12-22T08:35:05;91185.63;;;4.67;97.62
6198;BME280;3132;42.622;23.328;2023-12-22T08:37:31;91179.88;;;4.52;97.45
6198;BME280;3132;42.622;23.328;2023-12-22T08:39:56;91199.41;;;4.39;100.00
6198;BME280;3132;42.622;23.328;2023-12-22T08:42:23;91171.16;;;4.48;99.28
6198;BME280;3132;42.622;23.328;2023-12-22T08:44:48;91180.81;;;4.79;98.79
6198;BME280;3132;42.622;23.328;2023-12-22T08:47:14;91181.41;;;4.95;98.06
6198;BME280;3132;42.622;23.328;2023-12-22T08:49:39;91171.25;;;4.80;98.58
6198;BME280;3132;42.622;23.328;2023-12-22T08:52:05;91184.81;;;4.90;98.28
6198;BME280;3132;42.622;23.328;2023-12-22T08:54:30;91168.47;;;4.76;99.67
6198;BME280;3132;42.622;23.328;2023-12-22T08:56:56;91154.84;;;4.89;99.30
6198;BME280;3132;42.622;23.328;2023-12-22T08:59:21;91168.06;;;5.07;98.11
6198;BME280;3132;42.622;23.328;2023-12-22T09:01:47;91171.84;;;4.53;100.00
6198;BME280;3132;42.622;23.328;2023-12-22T09:04:12;91179.81;;;4.80;100.00
6198;BME280;3132;42.622;23.328;2023-12-22T09:06:37;91192.03;;;5.12;99.39
6198;BME280;3132;42.622;23.328;2023-12-22T09:09:03;91183.28;;;5.27;97.90
6198;BME280;3132;42.622;23.328;2023-12-22T09:11:32;91178.53;;;4.96;98.47
6198;BME280;3132;42.622;23.328;2023-12-22T09:13:58;91179.25;;;5.21;97.15
6198;BME280;3132;42.622;23.328;2023-12-22T09:16:23;91216.38;;;4.69;100.00
6198;BME280;3132;42.622;23.328;2023-12-22T09:18:50;91203.16;;;5.13;98.78
6198;BME280;3132;42.622;23.328;2023-12-22T09:21:16;91193.56;;;4.05;100.00
6198;BME280;3132;42.622;23.328;2023-12-22T09:23:44;91197.84;;;4.85;100.00
6198;BME280;3132;42.622;23.328;2023-12-22T09:26:12;91225.59;;;4.04;100.00
6198;BME280;3132;42.622;23.328;2023-12-22T09:28:37;91217.03;;;4.98;100.00
6198;BME280;3132;42.622;23.328;2023-12-22T09:31:03;91231.47;;;5.41;99.49
6198;BME280;3132;42.622;23.328;2023-12-22T09:33:30;91222.28;;;5.49;98.68
6198;BME280;3132;42.622;23.328;2023-12-22T09:35:56;91216.97;;;5.22;99.67
6198;BME280;3132;42.622;23.328;2023-12-22T09:38:21;91202.91;;;5.28;99.24
6198;BME280;3132;42.622;23.328;2023-12-22T09:40:49;91202.59;;;5.16;99.29
6198;BME280;3132;42.622;23.328;2023-12-22T09:43:15;91189.19;;;5.14;99.43
6198;BME280;3132;42.622;23.328;2023-12-22T09:45:41;91205.13;;;5.71;98.31
6198;BME280;3132;42.622;23.328;2023-12-22T09:48:07;91205.66;;;6.05;96.17
6198;BME280;3132;42.622;23.328;2023-12-22T09:50:34;91186.63;;;5.78;96.54
6198;BME280;3132;42.622;23.328;2023-12-22T09:53:01;91176.94;;;6.02;96.79
6198;BME280;3132;42.622;23.328;2023-12-22T09:55:28;91181.81;;;5.90;95.98
6198;BME280;3132;42.622;23.328;2023-12-22T09:57:54;91185.31;;;6.26;95.86
6198;BME280;3132;42.622;23.328;2023-12-22T10:00:21;91169.59;;;6.36;95.27
6198;BME280;3132;42.622;23.328;2023-12-22T10:02:47;91154.69;;;6.41;95.20
6198;BME280;3132;42.622;23.328;2023-12-22T10:05:13;91177.94;;;6.74;94.67
6198;BME280;3132;42.622;23.328;2023-12-22T10:07:41;91140.78;;;6.37;94.57
6198;BME280;3132;42.622;23.328;2023-12-22T10:10:07;91185.88;;;6.09;96.14
6198;BME280;3132;42.622;23.328;2023-12-22T10:12:34;91167.44;;;6.11;97.01
6198;BME280;3132;42.622;23.328;2023-12-22T10:15:00;91169.53;;;5.82;99.30
6198;BME280;3132;42.622;23.328;2023-12-22T10:17:26;91153.91;;;5.36;100.00
6198;BME280;3132;42.622;23.328;2023-12-22T10:19:52;91170.97;;;5.88;100.00
6198;BME280;3132;42.622;23.328;2023-12-22T10:22:17;91165.44;;;6.08;97.60
6198;BME280;3132;42.622;23.328;2023-12-22T10:24:44;91158.91;;;6.10;98.40
6198;BME280;3132;42.622;23.328;2023-12-22T10:27:14;91146.16;;;6.00;100.00
6198;BME280;3132;42.622;23.328;2023-12-22T10:29:40;91110.66;;;6.28;97.79
6198;BME280;3132;42.622;23.328;2023-12-22T10:32:07;91139.25;;;6.50;96.48
6198;BME280;3132;42.622;23.328;2023-12-22T10:34:33;91133.88;;;6.46;97.10
6198;BME280;3132;42.622;23.328;2023-12-22T10:36:59;91138.81;;;7.19;95.08
6198;BME280;3132;42.622;23.328;2023-12-22T10:39:31;91146.53;;;7.11;94.37
6198;BME280;3132;42.622;23.328;2023-12-22T10:42:00;91148.34;;;7.46;92.83
6198;BME280;3132;42.622;23.328;2023-12-22T10:44:26;91143.22;;;7.54;90.78
6198;BME280;3132;42.622;23.328;2023-12-22T10:46:52;91130.13;;;7.37;90.81
6198;BME280;3132;42.622;23.328;2023-12-22T10:49:20;91136.72;;;7.43;91.54
6198;BME280;3132;42.622;23.328;2023-12-22T10:51:45;91112.16;;;7.27;92.98
6198;BME280;3132;42.622;23.328;2023-12-22T10:54:10;91120.78;;;7.58;92.16
6198;BME280;3132;42.622;23.328;2023-12-22T10:56:36;91113.97;;;7.71;91.60
6198;BME280;3132;42.622;23.328;2023-12-22T10:59:02;91095.56;;;7.81;90.17
6198;BME280;3132;42.622;23.328;2023-12-22T11:01:29;91096.38;;;7.59;90.52
6198;BME280;3132;42.622;23.328;2023-12-22T11:03:57;91102.31;;;7.60;89.98
6198;BME280;3132;42.622;23.328;2023-12-22T11:06:24;91093.88;;;7.32;91.76
6198;BME280;3132;42.622;23.328;2023-12-22T11:08:52;91100.19;;;7.40;92.79
6198;BME280;3132;42.622;23.328;2023-12-22T11:11:28;91095.53;;;7.06;93.29
6198;BME280;3132;42.622;23.328;2023-12-22T11:13:59;91094.00;;;7.49;92.27
6198;BME280;3132;42.622;23.328;2023-12-22T11:16:29;91077.38;;;7.06;93.37
6198;BME280;3132;42.622;23.328;2023-12-22T11:18:55;91085.88;;;7.20;94.04
6198;BME280;3132;42.622;23.328;2023-12-22T11:21:25;91052.25;;;7.15;93.31
6198;BME280;3132;42.622;23.328;2023-12-22T11:23:51;91048.84;;;7.06;94.23
6198;BME280;3132;42.622;23.328;2023-12-22T11:26:21;91068.19;;;7.00;96.19
6198;BME280;3132;42.622;23.328;2023-12-22T11:28:48;91052.69;;;6.73;97.32
6198;BME280;3132;42.622;23.328;2023-12-22T11:31:14;91068.50;;;6.85;90.36
6198;BME280;3132;42.622;23.328;2023-12-22T11:33:47;91073.41;;;7.09;86.42
6198;BME280;3132;42.622;23.328;2023-12-22T11:36:14;91075.13;;;7.13;84.36
6198;BME280;3132;42.622;23.328;2023-12-22T11:38:40;91099.00;;;7.46;81.91
6198;BME280;3132;42.622;23.328;2023-12-22T11:41:08;91086.28;;;7.14;82.72
6198;BME280;3132;42.622;23.328;2023-12-22T11:43:37;91098.00;;;7.55;82.67
6198;BME280;3132;42.622;23.328;2023-12-22T11:46:04;91111.28;;;7.54;80.84
6198;BME280;3132;42.622;23.328;2023-12-22T11:48:30;91110.38;;;7.58;80.21
6198;BME280;3132;42.622;23.328;2023-12-22T11:50:55;91106.94;;;7.41;79.91
6198;BME280;3132;42.622;23.328;2023-12-22T11:53:24;91115.84;;;7.48;80.43
6198;BME280;3132;42.622;23.328;2023-12-22T11:58:38;91110.75;;;7.43;77.00
6198;BME280;3132;42.622;23.328;2023-12-22T12:01:11;91103.88;;;7.39;78.04
6198;BME280;3132;42.622;23.328;2023-12-22T12:03:40;91111.22;;;7.23;78.59
6198;BME280;3132;42.622;23.328;2023-12-22T12:08:50;91128.44;;;6.97;78.43
6198;BME280;3132;42.622;23.328;2023-12-22T12:11:16;91093.00;;;6.79;77.45
6198;BME280;3132;42.622;23.328;2023-12-22T12:13:44;91114.97;;;6.95;77.81
6198;BME280;3132;42.622;23.328;2023-12-22T12:16:11;91103.28;;;6.84;77.08
6198;BME280;3132;42.622;23.328;2023-12-22T12:18:37;91120.50;;;7.02;77.09
6198;BME280;3132;42.622;23.328;2023-12-22T12:21:02;91113.84;;;6.74;77.72
6198;BME280;3132;42.622;23.328;2023-12-22T12:23:28;91099.94;;;6.70;77.05
6198;BME280;3132;42.622;23.328;2023-12-22T12:25:54;91107.25;;;6.82;76.81
6198;BME280;3132;42.622;23.328;2023-12-22T12:28:28;91076.34;;;6.94;77.63
6198;BME280;3132;42.622;23.328;2023-12-22T12:31:04;91058.16;;;6.72;77.63
6198;BME280;3132;42.622;23.328;2023-12-22T12:33:29;91063.47;;;6.67;76.35
6198;BME280;3132;42.622;23.328;2023-12-22T12:35:57;91069.41;;;6.67;77.15
6198;BME280;3132;42.622;23.328;2023-12-22T12:38:34;91034.59;;;6.46;76.48
6198;BME280;3132;42.622;23.328;2023-12-22T12:41:03;91069.81;;;6.96;74.24
6198;BME280;3132;42.622;23.328;2023-12-22T12:43:29;91045.28;;;6.80;76.02
6198;BME280;3132;42.622;23.328;2023-12-22T12:45:54;91025.66;;;6.88;66.57
6198;BME280;3132;42.622;23.328;2023-12-22T12:48:21;91008.63;;;7.17;60.62
6198;BME280;3132;42.622;23.328;2023-12-22T12:50:47;91041.84;;;7.37;60.21
6198;BME280;3132;42.622;23.328;2023-12-22T12:53:13;91051.09;;;7.52;55.85
6198;BME280;3132;42.622;23.328;2023-12-22T12:55:38;91054.94;;;7.54;54.61
6198;BME280;3132;42.622;23.328;2023-12-22T12:58:04;91050.91;;;7.70;51.11
6198;BME280;3132;42.622;23.328;2023-12-22T13:00:31;91064.59;;;7.62;52.96
6198;BME280;3132;42.622;23.328;2023-12-22T13:03:06;91074.50;;;7.60;53.17
6198;BME280;3132;42.622;23.328;2023-12-22T13:05:32;91109.47;;;7.54;54.59
6198;BME280;3132;42.622;23.328;2023-12-22T13:08:11;91114.66;;;7.54;53.61
6198;BME280;3132;42.622;23.328;2023-12-22T13:10:37;91119.97;;;7.49;54.68
6198;BME280;3132;42.622;23.328;2023-12-22T13:13:03;91094.59;;;7.24;56.27
6198;BME280;3132;42.622;23.328;2023-12-22T13:15:29;91102.69;;;7.45;57.77
6198;BME280;3132;42.622;23.328;2023-12-22T13:17:54;91099.88;;;7.19;57.36
6198;BME280;3132;42.622;23.328;2023-12-22T13:20:20;91085.59;;;7.08;57.87
6198;BME280;3132;42.622;23.328;2023-12-22T13:22:46;91114.56;;;7.24;54.64
6198;BME280;3132;42.622;23.328;2023-12-22T13:25:11;91090.81;;;7.30;55.67
6198;BME280;3132;42.622;23.328;2023-12-22T13:27:46;91132.19;;;7.27;57.47